createdAt,value
2018-06-10T00:00:26.008Z,23.70
2018-06-10T00:02:54.722Z,23.55
2018-06-10T00:05:23.273Z,23.48
2018-06-10T00:07:52.064Z,23.59
2018-06-10T00:10:20.850Z,23.45
2018-06-10T00:12:49.654Z,23.33
2018-06-10T00:15:18.487Z,23.50
2018-06-10T00:17:47.098Z,23.38
2018-06-10T00:20:15.656Z,23.16
2018-06-10T00:22:44.040Z,23.07
2018-06-10T00:25:12.700Z,22.93
2018-06-10T00:27:40.982Z,22.85
2018-06-10T00:30:09.740Z,22.90
2018-06-10T00:32:38.545Z,22.83
2018-06-10T00:35:07.181Z,22.81
2018-06-10T00:37:35.717Z,22.62
2018-06-10T00:40:05.008Z,22.54
2018-06-10T00:42:34.017Z,22.42
2018-06-10T00:45:02.466Z,22.44
2018-06-10T00:47:31.309Z,22.39
2018-06-10T00:49:59.711Z,22.34
2018-06-10T00:52:28.301Z,22.37
2018-06-10T00:54:56.692Z,22.40
2018-06-10T00:57:25.381Z,22.43
2018-06-10T00:59:53.916Z,22.47
2018-06-10T01:02:22.299Z,22.57
2018-06-10T01:04:50.729Z,22.43
2018-06-10T01:07:19.582Z,22.46
2018-06-10T01:09:48.420Z,22.41
2018-06-10T01:12:17.207Z,22.40
2018-06-10T01:14:46.016Z,22.30
2018-06-10T01:17:15.037Z,22.38
2018-06-10T01:19:43.436Z,22.43
2018-06-10T01:22:12.185Z,22.51
2018-06-10T01:24:40.858Z,22.46
2018-06-10T01:27:09.310Z,22.41
2018-06-10T01:29:37.687Z,22.41
2018-06-10T01:32:06.272Z,22.36
2018-06-10T01:34:34.888Z,22.35
2018-06-10T01:37:03.292Z,22.29
2018-06-10T01:39:32.076Z,22.35
2018-06-10T01:42:00.651Z,22.47
2018-06-10T01:44:29.491Z,22.46
2018-06-10T01:46:58.168Z,22.47
2018-06-10T01:49:26.854Z,22.43
2018-06-10T01:51:55.681Z,22.37
2018-06-10T01:54:24.022Z,22.32
2018-06-10T01:56:52.847Z,22.30
2018-06-10T01:59:21.450Z,22.30
2018-06-10T02:01:50.101Z,22.22
2018-06-10T02:04:18.878Z,22.08
2018-06-10T02:06:47.691Z,21.99
2018-06-10T02:09:16.726Z,21.97
2018-06-10T02:11:45.316Z,22.04
2018-06-10T02:14:13.767Z,22.03
2018-06-10T02:16:42.459Z,21.92
2018-06-10T02:19:11.044Z,21.97
2018-06-10T02:21:39.681Z,21.93
2018-06-10T02:24:08.246Z,21.90
2018-06-10T02:26:37.009Z,21.78
2018-06-10T02:29:05.465Z,21.77
2018-06-10T02:31:34.371Z,21.84
2018-06-10T02:34:02.969Z,21.88
2018-06-10T02:36:31.528Z,21.89
2018-06-10T02:39:00.119Z,21.86
2018-06-10T02:41:28.712Z,21.91
2018-06-10T02:43:57.598Z,22.02
2018-06-10T02:46:26.287Z,21.89
2018-06-10T02:48:54.943Z,21.74
2018-06-10T02:51:23.420Z,21.70
2018-06-10T02:53:52.232Z,21.71
2018-06-10T02:56:20.968Z,21.67
2018-06-10T02:58:49.589Z,21.67
2018-06-10T03:01:18.548Z,21.73
2018-06-10T03:03:47.090Z,21.89
2018-06-10T03:06:15.701Z,21.77
2018-06-10T03:08:44.259Z,21.72
2018-06-10T03:11:12.928Z,21.61
2018-06-10T03:13:41.574Z,21.54
2018-06-10T03:16:10.260Z,21.43
2018-06-10T03:18:38.678Z,21.25
2018-06-10T03:21:07.290Z,21.22
2018-06-10T03:23:35.723Z,21.25
2018-06-10T03:26:04.391Z,21.34
2018-06-10T03:28:32.835Z,21.25
2018-06-10T03:31:01.320Z,21.24
2018-06-10T03:33:29.880Z,21.37
2018-06-10T03:35:58.644Z,21.40
2018-06-10T03:38:27.553Z,21.26
2018-06-10T03:40:56.126Z,21.29
2018-06-10T03:43:24.824Z,21.34
2018-06-10T03:45:53.468Z,21.23
2018-06-10T03:48:22.160Z,21.20
2018-06-10T03:50:50.481Z,21.25
2018-06-10T03:53:18.895Z,21.13
2018-06-10T03:55:47.450Z,21.25
2018-06-10T03:58:15.831Z,21.20
2018-06-10T04:00:44.272Z,21.16
2018-06-10T04:03:13.080Z,21.21
2018-06-10T04:05:41.825Z,21.30
2018-06-10T04:08:10.376Z,21.32
2018-06-10T04:10:38.984Z,21.30
2018-06-10T04:13:07.662Z,21.26
2018-06-10T04:15:36.252Z,21.14
2018-06-10T04:18:05.104Z,21.07
2018-06-10T04:20:33.868Z,21.15
2018-06-10T04:23:02.400Z,21.10
2018-06-10T04:25:31.031Z,21.07
2018-06-10T04:27:59.548Z,20.91
2018-06-10T04:30:28.352Z,20.78
2018-06-10T04:32:57.020Z,20.84
2018-06-10T04:35:25.475Z,20.80
2018-06-10T04:37:54.052Z,20.60
2018-06-10T04:40:22.567Z,20.59
2018-06-10T04:42:51.133Z,20.61
2018-06-10T04:45:19.817Z,20.65
2018-06-10T04:47:48.613Z,20.81
2018-06-10T04:50:17.312Z,20.85
2018-06-10T04:52:45.709Z,20.79
2018-06-10T04:55:14.392Z,21.03
2018-06-10T04:57:43.138Z,21.07
2018-06-10T05:00:11.866Z,21.17
2018-06-10T05:02:40.395Z,21.22
2018-06-10T05:05:09.060Z,21.04
2018-06-10T05:07:37.571Z,21.02
2018-06-10T05:10:05.971Z,21.27
2018-06-10T05:12:34.747Z,21.45
2018-06-10T05:15:03.316Z,21.42
2018-06-10T05:17:31.785Z,21.37
2018-06-10T05:20:00.441Z,21.49
2018-06-10T05:22:28.884Z,21.59
2018-06-10T05:24:57.222Z,21.58
2018-06-10T05:27:25.738Z,21.60
2018-06-10T05:29:54.023Z,21.71
2018-06-10T05:32:22.564Z,21.67
2018-06-10T05:34:51.038Z,21.86
2018-06-10T05:37:19.485Z,21.81
2018-06-10T05:39:48.049Z,21.91
2018-06-10T05:42:16.799Z,22.03
2018-06-10T05:44:45.428Z,21.91
2018-06-10T05:47:14.096Z,21.71
2018-06-10T05:49:42.735Z,21.65
2018-06-10T05:52:11.244Z,21.65
2018-06-10T05:54:39.936Z,21.85
2018-06-10T05:57:08.557Z,21.93
2018-06-10T05:59:36.926Z,22.07
2018-06-10T06:02:05.756Z,22.27
2018-06-10T06:04:34.529Z,22.46
2018-06-10T06:07:03.419Z,22.56
2018-06-10T06:09:32.185Z,22.57
2018-06-10T06:12:00.494Z,22.68
2018-06-10T06:14:29.345Z,22.61
2018-06-10T06:16:58.033Z,22.58
2018-06-10T06:19:26.750Z,22.45
2018-06-10T06:21:55.268Z,22.69
2018-06-10T06:24:23.817Z,22.63
2018-06-10T06:26:52.387Z,22.58
2018-06-10T06:29:20.635Z,22.68
2018-06-10T06:31:49.308Z,22.66
2018-06-10T06:34:17.896Z,22.89
2018-06-10T06:36:46.419Z,23.09
2018-06-10T06:39:14.668Z,23.00
2018-06-10T06:41:43.200Z,23.00
2018-06-10T06:44:11.837Z,23.18
2018-06-10T06:46:40.493Z,23.02
2018-06-10T06:49:09.603Z,22.55
2018-06-10T06:51:38.194Z,22.43
2018-06-10T06:54:06.456Z,22.21
2018-06-10T06:56:34.941Z,22.11
2018-06-10T06:59:03.568Z,22.18
2018-06-10T07:01:31.978Z,22.16
2018-06-10T07:04:00.727Z,22.36
2018-06-10T07:06:29.544Z,22.21
2018-06-10T07:08:57.934Z,21.99
2018-06-10T07:11:27.010Z,21.57
2018-06-10T07:13:55.763Z,21.35
2018-06-10T07:16:24.282Z,21.27
2018-06-10T07:18:52.712Z,21.41
2018-06-10T07:21:21.479Z,21.46
2018-06-10T07:23:50.061Z,21.32
2018-06-10T07:26:18.450Z,21.25
2018-06-10T07:28:47.038Z,21.40
2018-06-10T07:31:15.788Z,21.49
2018-06-10T07:33:44.703Z,21.71
2018-06-10T07:36:14.308Z,21.84
2018-06-10T07:38:42.736Z,21.99
2018-06-10T07:41:11.445Z,22.12
2018-06-10T07:43:40.084Z,21.62
2018-06-10T07:46:08.793Z,21.94
2018-06-10T07:48:37.272Z,22.14
2018-06-10T07:51:05.772Z,21.79
2018-06-10T07:53:34.431Z,21.58
2018-06-10T07:56:02.913Z,21.53
2018-06-10T07:58:31.446Z,21.85
2018-06-10T08:01:00.114Z,22.17
2018-06-10T08:03:28.715Z,22.55
2018-06-10T08:05:57.204Z,22.78
2018-06-10T08:08:26.258Z,23.30
2018-06-10T08:10:55.292Z,23.63
2018-06-10T08:13:23.775Z,23.71
2018-06-10T08:15:52.323Z,23.19
2018-06-10T08:18:20.958Z,23.29
2018-06-10T08:20:49.531Z,22.70
2018-06-10T08:23:18.136Z,22.73
2018-06-10T08:25:46.724Z,23.12
2018-06-10T08:28:15.388Z,23.54
2018-06-10T08:30:43.846Z,23.46
2018-06-10T08:33:12.671Z,23.74
2018-06-10T08:35:41.699Z,24.11
2018-06-10T08:38:10.206Z,24.45
2018-06-10T08:40:38.688Z,24.71
2018-06-10T08:43:07.151Z,24.68
2018-06-10T08:45:35.657Z,24.55
2018-06-10T08:48:04.221Z,23.88
2018-06-10T08:50:32.843Z,24.38
2018-06-10T08:53:01.204Z,24.63
2018-06-10T08:55:29.869Z,24.48
2018-06-10T08:57:58.427Z,24.32
2018-06-10T09:00:27.052Z,24.50
2018-06-10T09:02:55.598Z,24.30
2018-06-10T09:05:24.240Z,24.21
2018-06-10T09:07:52.760Z,24.05
2018-06-10T09:10:21.541Z,23.83
2018-06-10T09:12:49.968Z,23.89
2018-06-10T09:15:18.688Z,24.03
2018-06-10T09:17:47.251Z,23.81
2018-06-10T09:20:15.535Z,23.59
2018-06-10T09:22:44.173Z,23.79
2018-06-10T09:25:12.808Z,24.19
2018-06-10T09:27:41.186Z,24.24
2018-06-10T09:30:10.286Z,24.07
2018-06-10T09:32:38.659Z,23.68
2018-06-10T09:35:07.048Z,23.44
2018-06-10T09:37:35.594Z,23.33
2018-06-10T09:40:04.493Z,23.46
2018-06-10T09:43:37.258Z,23.97
2018-06-10T09:46:05.988Z,24.41
2018-06-10T09:48:34.690Z,24.43
2018-06-10T09:52:19.268Z,23.98
2018-06-10T09:54:47.732Z,23.94
2018-06-10T09:57:16.252Z,24.26
2018-06-10T09:59:44.858Z,24.33
2018-06-10T10:02:13.617Z,24.83
2018-06-10T10:04:42.274Z,25.02
2018-06-10T10:07:10.797Z,25.23
2018-06-10T10:09:39.364Z,24.69
2018-06-10T10:12:08.001Z,24.78
2018-06-10T10:14:36.933Z,24.62
2018-06-10T10:17:05.455Z,25.15
2018-06-10T10:19:34.329Z,24.95
2018-06-10T10:22:03.208Z,24.73
2018-06-10T10:24:31.792Z,24.35
2018-06-10T10:27:00.525Z,24.11
2018-06-10T10:29:28.960Z,24.64
2018-06-10T10:31:57.382Z,24.50
2018-06-10T10:34:26.002Z,24.43
2018-06-10T10:36:54.528Z,24.63
2018-06-10T10:39:23.924Z,24.64
2018-06-10T10:41:52.335Z,24.47
2018-06-10T10:44:21.012Z,24.75
2018-06-10T10:46:49.532Z,25.15
2018-06-10T10:49:18.102Z,25.54
2018-06-10T10:51:46.665Z,25.48
2018-06-10T10:54:15.592Z,25.54
2018-06-10T10:56:44.035Z,25.48
2018-06-10T10:59:12.837Z,25.66
2018-06-10T11:01:44.309Z,24.74
2018-06-10T11:04:13.015Z,24.70
2018-06-10T11:06:41.513Z,24.78
2018-06-10T11:09:10.061Z,24.92
2018-06-10T11:11:38.408Z,24.83
2018-06-10T11:14:07.062Z,24.61
2018-06-10T11:16:35.815Z,24.58
2018-06-10T11:19:04.381Z,24.57
2018-06-10T11:21:32.909Z,24.99
2018-06-10T11:24:02.257Z,25.50
2018-06-10T11:26:31.162Z,25.84
2018-06-10T11:28:59.838Z,25.34
2018-06-10T11:31:28.572Z,25.30
2018-06-10T11:33:57.175Z,25.59
2018-06-10T11:36:25.793Z,25.93
2018-06-10T11:38:54.424Z,26.22
2018-06-10T11:41:23.261Z,26.15
2018-06-10T11:43:51.700Z,25.26
2018-06-10T11:46:20.437Z,25.32
2018-06-10T11:48:49.185Z,25.31
2018-06-10T11:51:17.567Z,25.05
2018-06-10T11:53:46.121Z,24.91
2018-06-10T11:56:14.802Z,24.91
2018-06-10T11:58:43.328Z,24.81
2018-06-10T12:01:11.957Z,25.08
2018-06-10T12:03:40.624Z,24.98
2018-06-10T12:06:09.361Z,25.25
2018-06-10T12:08:38.001Z,25.49
2018-06-10T12:11:06.924Z,25.43
2018-06-10T12:13:35.507Z,25.66
2018-06-10T12:16:04.317Z,25.77
2018-06-10T12:18:32.833Z,25.80
2018-06-10T12:21:01.413Z,25.89
2018-06-10T12:23:30.242Z,26.00
2018-06-10T12:25:58.952Z,26.22
2018-06-10T12:28:27.479Z,25.85
2018-06-10T12:30:55.996Z,26.01
2018-06-10T12:33:24.945Z,25.57
2018-06-10T12:35:53.488Z,25.69
2018-06-10T12:38:21.785Z,25.95
2018-06-10T12:40:50.630Z,25.98
2018-06-10T12:43:19.150Z,26.08
2018-06-10T12:45:47.914Z,26.19
2018-06-10T12:48:16.455Z,25.80
2018-06-10T12:50:45.105Z,25.82
2018-06-10T12:53:14.030Z,25.88
2018-06-10T12:55:42.812Z,26.30
2018-06-10T12:58:11.539Z,26.60
2018-06-10T13:00:40.007Z,26.91
2018-06-10T13:03:08.716Z,27.34
2018-06-10T13:05:37.298Z,26.73
2018-06-10T13:08:06.377Z,26.42
2018-06-10T13:10:35.205Z,26.33
2018-06-10T13:13:03.623Z,26.42
2018-06-10T13:15:32.166Z,26.51
2018-06-10T13:18:01.055Z,26.94
2018-06-10T13:20:29.599Z,26.30
2018-06-10T13:22:58.272Z,26.85
2018-06-10T13:25:26.896Z,27.11
2018-06-10T13:27:55.361Z,27.62
2018-06-10T13:30:24.245Z,28.02
2018-06-10T13:32:52.856Z,28.23
2018-06-10T13:35:21.303Z,27.67
2018-06-10T13:37:49.896Z,27.62
2018-06-10T13:40:18.492Z,27.68
2018-06-10T13:42:47.072Z,28.11
2018-06-10T13:45:15.709Z,28.87
2018-06-10T13:47:44.432Z,28.97
2018-06-10T13:50:13.143Z,28.31
2018-06-10T13:52:41.607Z,27.53
2018-06-10T13:55:10.260Z,28.37
2018-06-10T13:57:38.812Z,27.76
2018-06-10T14:00:07.894Z,27.98
2018-06-10T14:02:36.539Z,28.67
2018-06-10T14:05:06.084Z,29.42
2018-06-10T14:07:35.017Z,29.25
2018-06-10T14:10:03.871Z,29.77
2018-06-10T14:12:32.365Z,29.85
2018-06-10T14:15:00.607Z,29.83
2018-06-10T14:17:29.174Z,29.58
2018-06-10T14:19:57.797Z,28.81
2018-06-10T14:22:26.277Z,28.65
2018-06-10T14:24:54.713Z,28.74
2018-06-10T14:27:23.201Z,28.56
2018-06-10T14:29:51.880Z,28.68
2018-06-10T14:32:20.349Z,29.20
2018-06-10T14:34:48.888Z,29.52
2018-06-10T14:37:17.869Z,29.34
2018-06-10T14:39:46.577Z,29.51
2018-06-10T14:42:15.268Z,29.94
2018-06-10T14:44:50.357Z,30.17
2018-06-10T14:47:19.000Z,29.78
2018-06-10T14:49:47.406Z,28.64
2018-06-10T14:52:16.017Z,28.79
2018-06-10T14:54:44.501Z,29.21
2018-06-10T14:57:13.533Z,29.41
2018-06-10T14:59:41.941Z,29.08
2018-06-10T15:02:10.646Z,28.79
2018-06-10T15:04:39.224Z,28.69
2018-06-10T15:07:08.098Z,28.07
2018-06-10T15:09:36.862Z,28.91
2018-06-10T15:12:05.529Z,29.56
2018-06-10T15:14:34.117Z,30.16
2018-06-10T15:17:03.389Z,30.60
2018-06-10T15:19:32.189Z,29.66
2018-06-10T15:22:00.793Z,29.50
2018-06-10T15:24:29.342Z,29.57
2018-06-10T15:26:58.260Z,29.28
2018-06-10T15:29:26.799Z,29.16
2018-06-10T15:31:55.344Z,29.17
2018-06-10T15:34:25.302Z,29.13
2018-06-10T15:36:54.401Z,28.95
2018-06-10T15:39:23.192Z,28.63
2018-06-10T15:41:51.677Z,28.12
2018-06-10T15:44:20.276Z,27.50
2018-06-10T15:46:48.626Z,27.59
2018-06-10T15:49:17.251Z,27.86
2018-06-10T15:51:45.989Z,27.81
2018-06-10T15:54:14.396Z,27.46
2018-06-10T15:56:42.959Z,27.56
2018-06-10T15:59:11.588Z,27.76
2018-06-10T16:01:40.121Z,27.81
2018-06-10T16:04:08.664Z,27.78
2018-06-10T16:06:37.256Z,27.62
2018-06-10T16:09:07.437Z,27.85
2018-06-10T16:11:36.055Z,27.69
2018-06-10T16:14:04.606Z,27.68
2018-06-10T16:16:33.408Z,27.62
2018-06-10T16:19:02.333Z,27.15
2018-06-10T16:21:30.588Z,27.14
2018-06-10T16:23:59.198Z,26.98
2018-06-10T16:26:27.736Z,27.05
2018-06-10T16:28:56.305Z,26.96
2018-06-10T16:31:32.535Z,26.77
2018-06-10T16:34:01.394Z,26.69
2018-06-10T16:36:32.083Z,26.59
2018-06-10T16:39:15.152Z,26.57
2018-06-10T16:41:43.630Z,26.50
2018-06-10T16:44:12.176Z,26.39
2018-06-10T16:46:40.739Z,26.40
2018-06-10T16:49:09.179Z,26.43
2018-06-10T16:51:37.635Z,26.10
2018-06-10T16:54:06.295Z,25.86
2018-06-10T16:56:35.186Z,25.79
2018-06-10T16:59:07.498Z,25.87
2018-06-10T17:01:36.382Z,25.89
2018-06-10T17:04:05.711Z,25.91
2018-06-10T17:06:34.250Z,25.95
2018-06-10T17:09:04.582Z,25.95
2018-06-10T17:11:33.059Z,25.88
2018-06-10T17:14:18.537Z,25.92
2018-06-10T17:16:47.055Z,25.77
2018-06-10T17:19:15.755Z,25.69
2018-06-10T17:21:44.282Z,25.80
2018-06-10T17:24:12.839Z,25.87
2018-06-10T17:26:41.590Z,25.91
2018-06-10T17:29:10.486Z,25.70
2018-06-10T17:31:39.132Z,25.53
2018-06-10T17:34:07.747Z,25.48
2018-06-10T17:36:36.244Z,25.48
2018-06-10T17:39:07.561Z,25.40
2018-06-10T17:41:36.282Z,25.49
2018-06-10T17:44:05.174Z,25.42
2018-06-10T17:46:33.692Z,25.52
2018-06-10T17:49:02.340Z,25.27
2018-06-10T17:51:30.945Z,25.35
2018-06-10T17:53:59.552Z,25.26
2018-06-10T17:56:28.496Z,25.26
2018-06-10T17:58:57.156Z,25.25
2018-06-10T18:01:25.692Z,25.16
2018-06-10T18:03:54.337Z,25.16
2018-06-10T18:06:22.967Z,25.16
2018-06-10T18:08:51.490Z,25.25
2018-06-10T18:11:20.101Z,25.08
2018-06-10T18:13:48.731Z,25.02
2018-06-10T18:16:17.165Z,25.12
2018-06-10T18:18:45.966Z,25.04
2018-06-10T18:21:14.897Z,25.12
2018-06-10T18:23:43.222Z,25.09
2018-06-10T18:26:11.766Z,25.07
2018-06-10T19:24:09.149Z,23.54
2018-06-10T19:26:37.831Z,23.57
2018-06-10T19:29:06.255Z,23.70
2018-06-10T19:31:34.651Z,23.70
2018-06-10T19:34:03.230Z,23.67
2018-06-10T19:36:31.733Z,23.72
2018-06-10T19:39:00.452Z,23.65
2018-06-10T19:41:28.998Z,23.57
2018-06-10T19:43:57.519Z,23.53
2018-06-10T19:46:26.185Z,23.46
2018-06-10T19:48:54.805Z,23.41
2018-06-10T19:51:23.107Z,23.45
2018-06-10T19:53:51.764Z,23.54
2018-06-10T19:56:20.431Z,23.59
2018-06-10T19:58:49.186Z,23.46
2018-06-10T20:01:17.684Z,23.43
2018-06-10T20:03:46.329Z,23.41
2018-06-10T20:06:14.873Z,23.34
2018-06-10T20:08:43.462Z,23.28
2018-06-10T20:11:11.997Z,23.27
2018-06-10T20:13:40.429Z,23.21
2018-06-10T20:16:09.209Z,23.22
2018-06-10T20:18:37.645Z,23.25
2018-06-10T20:21:06.297Z,23.24
2018-06-10T20:23:34.741Z,23.22
2018-06-10T20:26:03.354Z,23.29
2018-06-10T20:28:31.949Z,23.09
2018-06-10T20:31:00.508Z,22.91
2018-06-10T20:33:28.982Z,22.94
2018-06-10T20:35:57.698Z,22.87
2018-06-10T20:38:26.432Z,22.86
2018-06-10T20:40:55.098Z,22.85
2018-06-10T20:43:23.828Z,22.80
2018-06-10T20:45:52.577Z,22.78
2018-06-10T20:48:21.315Z,22.64
2018-06-10T20:50:50.044Z,22.63
2018-06-10T20:53:18.916Z,22.54
2018-06-10T20:55:47.865Z,22.50
2018-06-10T20:58:16.269Z,22.42
2018-06-10T21:00:44.844Z,22.47
2018-06-10T21:03:13.459Z,22.41
2018-06-10T21:05:41.772Z,22.22
2018-06-10T21:08:10.360Z,22.22
2018-06-10T21:10:38.889Z,22.06
2018-06-10T21:13:07.363Z,22.01
2018-06-10T21:15:36.173Z,22.06
2018-06-10T21:18:04.982Z,21.99
2018-06-10T21:20:33.421Z,21.83
2018-06-10T21:23:02.145Z,21.69
2018-06-10T21:25:30.563Z,21.49
2018-06-10T21:27:58.989Z,21.33
2018-06-10T21:30:27.538Z,21.30
2018-06-10T21:32:56.078Z,21.27
2018-06-10T21:35:24.942Z,21.11
2018-06-10T21:37:53.587Z,21.08
2018-06-10T21:40:23.362Z,21.09
2018-06-10T21:42:52.049Z,20.98
2018-06-10T21:45:20.634Z,20.89
2018-06-10T21:47:49.071Z,20.81
2018-06-10T21:50:17.639Z,20.74
2018-06-10T21:52:46.108Z,20.76
2018-06-10T21:55:15.067Z,20.71
2018-06-10T21:57:44.025Z,20.65
2018-06-10T22:00:24.304Z,20.56
2018-06-10T22:02:53.527Z,20.50
2018-06-10T22:05:22.384Z,20.50
2018-06-10T22:07:51.246Z,20.49
2018-06-10T22:10:19.732Z,20.32
2018-06-10T22:12:48.434Z,20.32
2018-06-10T22:15:17.085Z,20.37
2018-06-10T22:17:45.588Z,20.39
2018-06-10T22:20:14.180Z,20.37
2018-06-10T22:22:42.782Z,20.20
2018-06-10T22:25:11.260Z,20.26
2018-06-10T22:27:40.239Z,20.08
2018-06-10T22:30:08.824Z,19.92
2018-06-10T22:32:37.359Z,19.99
2018-06-10T22:35:06.107Z,19.98
2018-06-10T22:37:34.717Z,19.90
2018-06-10T22:40:03.468Z,19.83
2018-06-10T22:42:31.995Z,19.85
2018-06-10T22:45:00.779Z,19.81
2018-06-10T22:47:29.305Z,19.75
2018-06-10T22:49:58.008Z,19.76
2018-06-10T22:52:26.465Z,19.79
2018-06-10T22:54:55.717Z,19.64
2018-06-10T22:57:24.399Z,19.44
2018-06-10T22:59:52.909Z,19.47
2018-06-10T23:02:21.257Z,19.56
2018-06-10T23:04:50.123Z,19.67
2018-06-10T23:07:18.715Z,19.71
2018-06-10T23:09:47.281Z,19.71
2018-06-10T23:12:15.883Z,19.47
2018-06-10T23:14:44.301Z,19.50
2018-06-10T23:17:13.060Z,19.53
2018-06-10T23:19:41.620Z,19.39
2018-06-10T23:22:10.230Z,19.34
2018-06-10T23:24:38.838Z,19.42
2018-06-10T23:27:07.542Z,19.28
2018-06-10T23:29:36.113Z,19.14
2018-06-10T23:32:04.815Z,18.97
2018-06-10T23:34:33.111Z,18.90
2018-06-10T23:37:01.818Z,19.02
2018-06-10T23:39:30.375Z,19.09
2018-06-10T23:41:58.872Z,19.05
2018-06-10T23:44:27.535Z,18.83
2018-06-10T23:46:56.148Z,18.87
2018-06-10T23:49:24.693Z,18.82
2018-06-10T23:51:53.191Z,18.74
2018-06-10T23:54:21.612Z,18.79
2018-06-10T23:56:50.142Z,18.76
2018-06-10T23:59:18.540Z,18.78
